sensor_id;sensor_type;location;lat;lon;timestamp;pressure;altitude;pressure_sealevel;temperature;humidity
80693;BME280;70055;39.436;-77.514;2023-11-21T00:01:53;100739.13;;;3.36;37.29
80693;BME280;70055;39.436;-77.514;2023-11-21T00:04:21;100749.04;;;2.66;36.69
80693;BME280;70055;39.436;-77.514;2023-11-21T00:06:49;100761.53;;;1.64;38.16
80693;BME280;70055;39.436;-77.514;2023-11-21T00:09:16;100757.05;;;3.45;35.60
80693;BME280;70055;39.436;-77.514;2023-11-21T00:11:45;100748.92;;;4.31;34.99
80693;BME280;70055;39.436;-77.514;2023-11-21T00:14:14;100760.30;;;2.37;38.58
80693;BME280;70055;39.436;-77.514;2023-11-21T00:16:43;100767.38;;;4.59;36.52
80693;BME280;70055;39.436;-77.514;2023-11-21T00:19:12;100771.62;;;3.91;34.84
80693;BME280;70055;39.436;-77.514;2023-11-21T00:21:42;100782.64;;;3.83;33.46
80693;BME280;70055;39.436;-77.514;2023-11-21T00:24:10;100792.88;;;3.79;33.87
80693;BME280;70055;39.436;-77.514;2023-11-21T00:26:38;100790.25;;;3.90;34.27
80693;BME280;70055;39.436;-77.514;2023-11-21T00:29:06;100784.55;;;4.09;35.55
80693;BME280;70055;39.436;-77.514;2023-11-21T00:31:35;100785.41;;;4.59;33.20
80693;BME280;70055;39.436;-77.514;2023-11-21T00:34:03;100793.96;;;3.12;36.59
80693;BME280;70055;39.436;-77.514;2023-11-21T00:36:31;100794.86;;;4.95;33.73
80693;BME280;70055;39.436;-77.514;2023-11-21T00:39:00;100797.86;;;4.31;35.09
80693;BME280;70055;39.436;-77.514;2023-11-21T00:41:28;100802.32;;;2.01;36.18
80693;BME280;70055;39.436;-77.514;2023-11-21T00:43:57;100797.95;;;1.61;36.53
80693;BME280;70055;39.436;-77.514;2023-11-21T00:46:25;100796.15;;;1.88;38.04
80693;BME280;70055;39.436;-77.514;2023-11-21T00:48:54;100798.50;;;3.14;35.92
80693;BME280;70055;39.436;-77.514;2023-11-21T00:51:22;100803.84;;;2.15;38.64
80693;BME280;70055;39.436;-77.514;2023-11-21T00:53:51;100807.72;;;2.91;35.09
80693;BME280;70055;39.436;-77.514;2023-11-21T00:56:19;100819.71;;;2.17;37.58
80693;BME280;70055;39.436;-77.514;2023-11-21T00:58:49;100820.44;;;2.33;36.26
80693;BME280;70055;39.436;-77.514;2023-11-21T01:01:16;100818.41;;;2.54;36.41
80693;BME280;70055;39.436;-77.514;2023-11-21T01:03:46;100817.09;;;3.22;34.15
80693;BME280;70055;39.436;-77.514;2023-11-21T01:06:14;100812.98;;;2.72;36.33
80693;BME280;70055;39.436;-77.514;2023-11-21T01:08:43;100813.95;;;1.73;38.42
80693;BME280;70055;39.436;-77.514;2023-11-21T01:11:12;100804.78;;;2.44;35.72
80693;BME280;70055;39.436;-77.514;2023-11-21T01:13:41;100797.77;;;3.13;35.65
80693;BME280;70055;39.436;-77.514;2023-11-21T01:16:09;100796.65;;;2.04;36.83
80693;BME280;70055;39.436;-77.514;2023-11-21T01:18:37;100802.70;;;1.24;37.80
80693;BME280;70055;39.436;-77.514;2023-11-21T01:21:06;100794.08;;;1.66;37.10
80693;BME280;70055;39.436;-77.514;2023-11-21T01:23:33;100803.00;;;0.89;39.81
80693;BME280;70055;39.436;-77.514;2023-11-21T01:26:01;100803.38;;;0.92;38.82
80693;BME280;70055;39.436;-77.514;2023-11-21T01:28:30;100805.40;;;1.24;39.20
80693;BME280;70055;39.436;-77.514;2023-11-21T01:30:58;100805.98;;;1.54;38.20
80693;BME280;70055;39.436;-77.514;2023-11-21T01:33:27;100809.99;;;1.82;38.23
80693;BME280;70055;39.436;-77.514;2023-11-21T01:35:55;100811.51;;;2.48;37.02
80693;BME280;70055;39.436;-77.514;2023-11-21T01:38:24;100816.52;;;1.66;36.88
80693;BME280;70055;39.436;-77.514;2023-11-21T01:40:53;100809.64;;;1.49;37.60
80693;BME280;70055;39.436;-77.514;2023-11-21T01:43:22;100799.71;;;2.05;36.89
80693;BME280;70055;39.436;-77.514;2023-11-21T01:45:51;100794.72;;;1.36;38.61
80693;BME280;70055;39.436;-77.514;2023-11-21T01:48:19;100784.68;;;1.05;38.74
80693;BME280;70055;39.436;-77.514;2023-11-21T01:50:47;100784.51;;;1.24;38.72
80693;BME280;70055;39.436;-77.514;2023-11-21T01:53:15;100788.99;;;1.18;37.61
80693;BME280;70055;39.436;-77.514;2023-11-21T01:55:45;100788.93;;;2.24;36.59
80693;BME280;70055;39.436;-77.514;2023-11-21T01:58:14;100784.49;;;2.25;36.26
80693;BME280;70055;39.436;-77.514;2023-11-21T02:00:43;100786.98;;;1.02;38.54
80693;BME280;70055;39.436;-77.514;2023-11-21T02:03:12;100777.99;;;1.20;38.70
80693;BME280;70055;39.436;-77.514;2023-11-21T02:05:40;100779.63;;;1.16;38.46
80693;BME280;70055;39.436;-77.514;2023-11-21T02:08:08;100772.89;;;2.19;36.09
80693;BME280;70055;39.436;-77.514;2023-11-21T02:10:38;100773.98;;;1.38;37.12
80693;BME280;70055;39.436;-77.514;2023-11-21T02:13:06;100764.80;;;1.37;38.18
80693;BME280;70055;39.436;-77.514;2023-11-21T02:15:34;100757.58;;;2.29;36.53
80693;BME280;70055;39.436;-77.514;2023-11-21T02:18:03;100757.22;;;2.26;35.44
80693;BME280;70055;39.436;-77.514;2023-11-21T02:20:31;100761.01;;;1.82;37.05
80693;BME280;70055;39.436;-77.514;2023-11-21T02:23:00;100773.44;;;0.48;38.18
80693;BME280;70055;39.436;-77.514;2023-11-21T02:25:29;100779.50;;;0.82;36.94
80693;BME280;70055;39.436;-77.514;2023-11-21T02:27:59;100774.43;;;1.85;35.92
80693;BME280;70055;39.436;-77.514;2023-11-21T02:30:27;100779.59;;;2.26;36.15
80693;BME280;70055;39.436;-77.514;2023-11-21T02:32:56;100782.48;;;3.02;34.37
80693;BME280;70055;39.436;-77.514;2023-11-21T02:35:25;100781.45;;;3.66;33.17
80693;BME280;70055;39.436;-77.514;2023-11-21T02:37:53;100767.37;;;4.56;31.59
80693;BME280;70055;39.436;-77.514;2023-11-21T02:40:21;100765.83;;;3.68;32.97
80693;BME280;70055;39.436;-77.514;2023-11-21T02:42:48;100767.84;;;2.06;34.87
80693;BME280;70055;39.436;-77.514;2023-11-21T02:45:16;100772.32;;;2.71;33.82
80693;BME280;70055;39.436;-77.514;2023-11-21T02:47:46;100787.80;;;2.28;35.13
80693;BME280;70055;39.436;-77.514;2023-11-21T02:50:15;100789.58;;;2.45;34.80
80693;BME280;70055;39.436;-77.514;2023-11-21T02:52:44;100790.21;;;2.25;34.49
80693;BME280;70055;39.436;-77.514;2023-11-21T02:55:12;100801.43;;;3.63;32.66
80693;BME280;70055;39.436;-77.514;2023-11-21T02:57:40;100805.29;;;2.73;34.54
80693;BME280;70055;39.436;-77.514;2023-11-21T03:00:09;100794.42;;;2.56;34.76
80693;BME280;70055;39.436;-77.514;2023-11-21T03:02:37;100794.86;;;2.33;35.35
80693;BME280;70055;39.436;-77.514;2023-11-21T03:05:07;100793.39;;;2.38;34.79
80693;BME280;70055;39.436;-77.514;2023-11-21T03:07:36;100797.40;;;1.43;36.03
80693;BME280;70055;39.436;-77.514;2023-11-21T03:10:05;100793.90;;;2.29;34.95
80693;BME280;70055;39.436;-77.514;2023-11-21T03:12:34;100794.58;;;1.93;35.80
80693;BME280;70055;39.436;-77.514;2023-11-21T03:15:02;100803.98;;;2.16;36.72
80693;BME280;70055;39.436;-77.514;2023-11-21T03:17:30;100798.75;;;3.33;33.71
80693;BME280;70055;39.436;-77.514;2023-11-21T03:19:58;100798.60;;;1.95;36.83
80693;BME280;70055;39.436;-77.514;2023-11-21T03:22:26;100790.18;;;3.09;34.50
80693;BME280;70055;39.436;-77.514;2023-11-21T03:24:54;100793.03;;;2.71;35.22
80693;BME280;70055;39.436;-77.514;2023-11-21T03:27:23;100785.92;;;1.23;38.10
80693;BME280;70055;39.436;-77.514;2023-11-21T03:29:51;100786.81;;;1.77;37.00
80693;BME280;70055;39.436;-77.514;2023-11-21T03:32:18;100798.22;;;1.54;37.57
80693;BME280;70055;39.436;-77.514;2023-11-21T03:34:55;100808.50;;;1.95;36.97
80693;BME280;70055;39.436;-77.514;2023-11-21T03:37:23;100814.59;;;2.05;35.77
80693;BME280;70055;39.436;-77.514;2023-11-21T03:39:52;100813.13;;;2.89;34.69
80693;BME280;70055;39.436;-77.514;2023-11-21T03:42:20;100821.87;;;2.74;34.59
80693;BME280;70055;39.436;-77.514;2023-11-21T03:44:47;100821.52;;;3.84;32.35
80693;BME280;70055;39.436;-77.514;2023-11-21T03:47:16;100825.17;;;4.53;31.59
80693;BME280;70055;39.436;-77.514;2023-11-21T03:49:43;100834.53;;;4.98;30.90
80693;BME280;70055;39.436;-77.514;2023-11-21T03:52:11;100835.44;;;3.91;32.07
80693;BME280;70055;39.436;-77.514;2023-11-21T03:54:39;100839.45;;;4.32;31.90
80693;BME280;70055;39.436;-77.514;2023-11-21T03:57:07;100839.72;;;4.22;31.86
80693;BME280;70055;39.436;-77.514;2023-11-21T03:59:35;100843.11;;;4.06;31.33
80693;BME280;70055;39.436;-77.514;2023-11-21T04:02:04;100850.49;;;5.25;30.53
80693;BME280;70055;39.436;-77.514;2023-11-21T04:04:32;100849.16;;;4.38;31.42
80693;BME280;70055;39.436;-77.514;2023-11-21T04:07:01;100851.26;;;3.68;33.14
80693;BME280;70055;39.436;-77.514;2023-11-21T04:09:29;100851.56;;;5.20;30.79
80693;BME280;70055;39.436;-77.514;2023-11-21T04:11:57;100847.22;;;4.20;32.35
80693;BME280;70055;39.436;-77.514;2023-11-21T04:14:25;100849.49;;;4.26;33.21
80693;BME280;70055;39.436;-77.514;2023-11-21T04:16:54;100849.11;;;4.69;31.95
80693;BME280;70055;39.436;-77.514;2023-11-21T04:19:22;100852.19;;;3.95;33.39
80693;BME280;70055;39.436;-77.514;2023-11-21T04:21:50;100857.42;;;4.28;32.95
80693;BME280;70055;39.436;-77.514;2023-11-21T04:24:19;100858.81;;;3.98;33.31
80693;BME280;70055;39.436;-77.514;2023-11-21T04:26:46;100854.31;;;4.59;32.34
80693;BME280;70055;39.436;-77.514;2023-11-21T04:29:14;100856.08;;;3.26;34.80
80693;BME280;70055;39.436;-77.514;2023-11-21T04:31:42;100850.96;;;4.72;31.60
80693;BME280;70055;39.436;-77.514;2023-11-21T04:34:10;100848.53;;;2.84;35.69
80693;BME280;70055;39.436;-77.514;2023-11-21T04:36:38;100842.95;;;3.89;33.67
80693;BME280;70055;39.436;-77.514;2023-11-21T04:39:07;100855.22;;;3.11;33.42
80693;BME280;70055;39.436;-77.514;2023-11-21T04:41:36;100855.29;;;3.43;34.25
80693;BME280;70055;39.436;-77.514;2023-11-21T04:44:05;100854.95;;;2.57;34.58
80693;BME280;70055;39.436;-77.514;2023-11-21T04:46:33;100849.55;;;3.72;33.80
80693;BME280;70055;39.436;-77.514;2023-11-21T04:49:01;100845.15;;;4.06;32.99
80693;BME280;70055;39.436;-77.514;2023-11-21T04:51:29;100839.00;;;3.89;33.51
80693;BME280;70055;39.436;-77.514;2023-11-21T04:53:57;100832.91;;;3.50;33.91
80693;BME280;70055;39.436;-77.514;2023-11-21T04:56:25;100827.80;;;4.30;32.35
80693;BME280;70055;39.436;-77.514;2023-11-21T04:58:54;100833.96;;;3.52;34.04
80693;BME280;70055;39.436;-77.514;2023-11-21T05:01:22;100836.74;;;3.87;32.50
80693;BME280;70055;39.436;-77.514;2023-11-21T05:03:49;100831.37;;;3.71;32.88
80693;BME280;70055;39.436;-77.514;2023-11-21T05:06:17;100842.26;;;3.34;34.01
80693;BME280;70055;39.436;-77.514;2023-11-21T05:08:45;100844.64;;;2.94;34.99
80693;BME280;70055;39.436;-77.514;2023-11-21T05:11:24;100849.76;;;3.69;33.07
80693;BME280;70055;39.436;-77.514;2023-11-21T05:13:52;100847.86;;;3.99;33.72
80693;BME280;70055;39.436;-77.514;2023-11-21T05:16:20;100845.46;;;3.67;33.43
80693;BME280;70055;39.436;-77.514;2023-11-21T05:18:48;100849.05;;;3.91;33.67
80693;BME280;70055;39.436;-77.514;2023-11-21T05:21:17;100854.38;;;3.71;33.84
80693;BME280;70055;39.436;-77.514;2023-11-21T05:23:45;100858.13;;;4.77;32.19
80693;BME280;70055;39.436;-77.514;2023-11-21T05:26:13;100858.23;;;2.45;35.60
80693;BME280;70055;39.436;-77.514;2023-11-21T05:28:40;100850.70;;;4.37;33.32
80693;BME280;70055;39.436;-77.514;2023-11-21T05:31:08;100856.45;;;2.54;35.71
80693;BME280;70055;39.436;-77.514;2023-11-21T05:33:36;100854.84;;;3.98;33.63
80693;BME280;70055;39.436;-77.514;2023-11-21T05:36:05;100856.60;;;2.96;35.38
80693;BME280;70055;39.436;-77.514;2023-11-21T05:38:35;100858.18;;;3.44;34.59
80693;BME280;70055;39.436;-77.514;2023-11-21T05:41:03;100857.89;;;1.82;37.51
80693;BME280;70055;39.436;-77.514;2023-11-21T05:43:31;100851.96;;;3.80;34.54
80693;BME280;70055;39.436;-77.514;2023-11-21T05:45:59;100849.73;;;3.71;34.28
80693;BME280;70055;39.436;-77.514;2023-11-21T05:48:27;100845.87;;;3.76;34.34
80693;BME280;70055;39.436;-77.514;2023-11-21T05:50:54;100849.74;;;3.55;33.65
80693;BME280;70055;39.436;-77.514;2023-11-21T05:53:23;100854.51;;;3.24;34.25
80693;BME280;70055;39.436;-77.514;2023-11-21T05:55:50;100853.91;;;5.20;31.73
80693;BME280;70055;39.436;-77.514;2023-11-21T05:58:18;100846.59;;;4.13;32.82
80693;BME280;70055;39.436;-77.514;2023-11-21T06:00:46;100846.83;;;4.31;33.52
80693;BME280;70055;39.436;-77.514;2023-11-21T06:03:14;100849.93;;;2.71;35.66
80693;BME280;70055;39.436;-77.514;2023-11-21T06:05:42;100846.56;;;3.47;34.88
80693;BME280;70055;39.436;-77.514;2023-11-21T06:08:11;100847.80;;;3.54;35.06
80693;BME280;70055;39.436;-77.514;2023-11-21T06:10:39;100848.14;;;3.14;35.89
80693;BME280;70055;39.436;-77.514;2023-11-21T06:13:06;100852.05;;;2.93;36.46
80693;BME280;70055;39.436;-77.514;2023-11-21T06:15:34;100847.79;;;2.38;38.17
80693;BME280;70055;39.436;-77.514;2023-11-21T06:18:02;100851.69;;;0.85;39.62
80693;BME280;70055;39.436;-77.514;2023-11-21T06:20:30;100850.10;;;2.26;38.57
80693;BME280;70055;39.436;-77.514;2023-11-21T06:22:57;100857.18;;;2.72;36.33
80693;BME280;70055;39.436;-77.514;2023-11-21T06:25:26;100861.07;;;2.02;37.75
80693;BME280;70055;39.436;-77.514;2023-11-21T06:27:55;100862.64;;;2.35;38.21
80693;BME280;70055;39.436;-77.514;2023-11-21T06:30:23;100867.52;;;2.65;37.91
80693;BME280;70055;39.436;-77.514;2023-11-21T06:32:51;100859.34;;;2.61;38.00
80693;BME280;70055;39.436;-77.514;2023-11-21T06:35:19;100860.90;;;1.76;39.77
80693;BME280;70055;39.436;-77.514;2023-11-21T06:37:47;100865.85;;;1.50;39.18
80693;BME280;70055;39.436;-77.514;2023-11-21T06:40:16;100860.40;;;2.03;39.16
80693;BME280;70055;39.436;-77.514;2023-11-21T06:42:44;100861.13;;;1.29;40.02
80693;BME280;70055;39.436;-77.514;2023-11-21T06:45:12;100854.14;;;1.33;40.39
80693;BME280;70055;39.436;-77.514;2023-11-21T06:47:41;100852.95;;;1.12;41.21
80693;BME280;70055;39.436;-77.514;2023-11-21T06:50:10;100847.50;;;1.54;39.80
80693;BME280;70055;39.436;-77.514;2023-11-21T06:52:38;100845.59;;;0.74;41.39
80693;BME280;70055;39.436;-77.514;2023-11-21T06:55:07;100831.52;;;0.17;41.85
80693;BME280;70055;39.436;-77.514;2023-11-21T06:57:35;100827.56;;;0.30;42.76
80693;BME280;70055;39.436;-77.514;2023-11-21T07:00:04;100816.21;;;0.41;42.19
80693;BME280;70055;39.436;-77.514;2023-11-21T07:02:32;100810.88;;;0.20;43.97
80693;BME280;70055;39.436;-77.514;2023-11-21T07:05:00;100812.63;;;0.88;42.41
80693;BME280;70055;39.436;-77.514;2023-11-21T07:07:28;100819.07;;;1.20;42.89
80693;BME280;70055;39.436;-77.514;2023-11-21T07:09:56;100822.88;;;0.58;42.72
80693;BME280;70055;39.436;-77.514;2023-11-21T07:12:24;100823.21;;;1.71;41.60
80693;BME280;70055;39.436;-77.514;2023-11-21T07:14:52;100818.65;;;1.43;41.79
80693;BME280;70055;39.436;-77.514;2023-11-21T07:17:20;100816.03;;;1.44;41.07
80693;BME280;70055;39.436;-77.514;2023-11-21T07:19:48;100811.79;;;1.73;42.10
80693;BME280;70055;39.436;-77.514;2023-11-21T07:22:16;100815.60;;;1.28;42.79
80693;BME280;70055;39.436;-77.514;2023-11-21T07:24:44;100823.92;;;1.51;43.50
80693;BME280;70055;39.436;-77.514;2023-11-21T07:27:12;100816.78;;;1.07;44.21
80693;BME280;70055;39.436;-77.514;2023-11-21T07:29:39;100811.93;;;0.97;45.44
80693;BME280;70055;39.436;-77.514;2023-11-21T07:32:07;100806.40;;;0.71;45.95
80693;BME280;70055;39.436;-77.514;2023-11-21T07:34:35;100802.47;;;1.14;45.67
80693;BME280;70055;39.436;-77.514;2023-11-21T07:37:03;100796.99;;;0.61;45.67
80693;BME280;70055;39.436;-77.514;2023-11-21T07:39:31;100792.97;;;0.73;46.51
80693;BME280;70055;39.436;-77.514;2023-11-21T07:41:59;100787.34;;;1.39;43.26
80693;BME280;70055;39.436;-77.514;2023-11-21T07:44:27;100784.92;;;1.30;43.45
80693;BME280;70055;39.436;-77.514;2023-11-21T07:46:56;100797.41;;;1.61;44.10
80693;BME280;70055;39.436;-77.514;2023-11-21T07:49:25;100810.64;;;0.85;45.92
80693;BME280;70055;39.436;-77.514;2023-11-21T07:51:52;100810.32;;;0.70;46.87
80693;BME280;70055;39.436;-77.514;2023-11-21T07:54:20;100808.67;;;0.72;46.91
80693;BME280;70055;39.436;-77.514;2023-11-21T07:56:48;100795.66;;;0.24;49.03
80693;BME280;70055;39.436;-77.514;2023-11-21T07:59:16;100811.57;;;0.56;49.08
80693;BME280;70055;39.436;-77.514;2023-11-21T08:01:43;100795.44;;;0.15;49.97
80693;BME280;70055;39.436;-77.514;2023-11-21T08:04:11;100782.69;;;0.07;51.28
80693;BME280;70055;39.436;-77.514;2023-11-21T08:06:39;100779.23;;;0.41;50.86
80693;BME280;70055;39.436;-77.514;2023-11-21T08:09:07;100790.18;;;0.77;49.09
80693;BME280;70055;39.436;-77.514;2023-11-21T08:11:34;100780.05;;;0.27;49.56
80693;BME280;70055;39.436;-77.514;2023-11-21T08:14:02;100765.66;;;0.03;50.02
80693;BME280;70055;39.436;-77.514;2023-11-21T08:16:31;100766.23;;;0.98;48.27
80693;BME280;70055;39.436;-77.514;2023-11-21T08:18:59;100762.85;;;0.66;49.26
80693;BME280;70055;39.436;-77.514;2023-11-21T08:21:27;100764.38;;;0.21;49.65
80693;BME280;70055;39.436;-77.514;2023-11-21T08:23:55;100765.97;;;-0.01;50.12
80693;BME280;70055;39.436;-77.514;2023-11-21T08:26:23;100759.89;;;0.74;49.66
80693;BME280;70055;39.436;-77.514;2023-11-21T08:28:51;100742.25;;;0.48;49.90
80693;BME280;70055;39.436;-77.514;2023-11-21T08:31:25;100710.54;;;0.19;51.13
80693;BME280;70055;39.436;-77.514;2023-11-21T08:33:53;100699.20;;;0.11;51.65
80693;BME280;70055;39.436;-77.514;2023-11-21T08:36:22;100696.00;;;-0.22;51.93
80693;BME280;70055;39.436;-77.514;2023-11-21T08:38:50;100703.13;;;-0.05;51.75
80693;BME280;70055;39.436;-77.514;2023-11-21T08:41:18;100716.33;;;-0.14;51.93
80693;BME280;70055;39.436;-77.514;2023-11-21T08:43:46;100696.67;;;-0.20;52.73
80693;BME280;70055;39.436;-77.514;2023-11-21T08:46:14;100705.67;;;-0.28;52.21
80693;BME280;70055;39.436;-77.514;2023-11-21T08:48:42;100715.90;;;0.14;50.11
80693;BME280;70055;39.436;-77.514;2023-11-21T08:51:11;100703.07;;;0.08;49.84
80693;BME280;70055;39.436;-77.514;2023-11-21T08:53:39;100714.16;;;0.44;49.44
80693;BME280;70055;39.436;-77.514;2023-11-21T08:56:08;100716.05;;;0.53;48.80
80693;BME280;70055;39.436;-77.514;2023-11-21T08:58:40;100709.46;;;0.45;49.49
80693;BME280;70055;39.436;-77.514;2023-11-21T09:01:07;100718.62;;;0.34;48.81
80693;BME280;70055;39.436;-77.514;2023-11-21T09:03:35;100737.59;;;0.46;47.86
80693;BME280;70055;39.436;-77.514;2023-11-21T09:06:04;100714.92;;;0.48;47.80
80693;BME280;70055;39.436;-77.514;2023-11-21T09:08:32;100702.59;;;0.48;48.07
80693;BME280;70055;39.436;-77.514;2023-11-21T09:10:59;100712.32;;;0.05;48.86
80693;BME280;70055;39.436;-77.514;2023-11-21T09:13:27;100723.26;;;0.22;48.12
80693;BME280;70055;39.436;-77.514;2023-11-21T09:15:55;100706.10;;;0.24;48.10
80693;BME280;70055;39.436;-77.514;2023-11-21T09:18:24;100695.18;;;-0.06;50.48
80693;BME280;70055;39.436;-77.514;2023-11-21T09:20:52;100701.79;;;-0.03;49.05
80693;BME280;70055;39.436;-77.514;2023-11-21T09:23:19;100695.53;;;-0.48;49.96
80693;BME280;70055;39.436;-77.514;2023-11-21T09:25:48;100688.04;;;0.28;48.66
80693;BME280;70055;39.436;-77.514;2023-11-21T09:28:16;100686.24;;;-0.08;48.91
80693;BME280;70055;39.436;-77.514;2023-11-21T09:30:44;100678.21;;;-0.21;49.81
80693;BME280;70055;39.436;-77.514;2023-11-21T09:33:12;100667.55;;;-0.16;49.32
80693;BME280;70055;39.436;-77.514;2023-11-21T09:35:40;100673.89;;;-0.37;50.53
80693;BME280;70055;39.436;-77.514;2023-11-21T09:38:07;100664.31;;;-0.37;49.48
80693;BME280;70055;39.436;-77.514;2023-11-21T09:40:35;100677.23;;;-0.23;49.29
80693;BME280;70055;39.436;-77.514;2023-11-21T09:43:06;100671.47;;;0.49;47.78
80693;BME280;70055;39.436;-77.514;2023-11-21T09:45:36;100660.76;;;-0.05;48.36
80693;BME280;70055;39.436;-77.514;2023-11-21T09:48:07;100661.73;;;1.33;45.87
80693;BME280;70055;39.436;-77.514;2023-11-21T09:50:36;100663.81;;;1.10;45.66
80693;BME280;70055;39.436;-77.514;2023-11-21T09:53:15;100669.87;;;1.75;44.45
80693;BME280;70055;39.436;-77.514;2023-11-21T09:55:46;100684.70;;;0.80;45.87
80693;BME280;70055;39.436;-77.514;2023-11-21T09:58:15;100677.61;;;0.39;47.30
80693;BME280;70055;39.436;-77.514;2023-11-21T10:00:46;100678.08;;;0.86;46.23
80693;BME280;70055;39.436;-77.514;2023-11-21T10:03:14;100671.82;;;1.21;45.98
80693;BME280;70055;39.436;-77.514;2023-11-21T10:05:43;100662.47;;;1.16;44.98
80693;BME280;70055;39.436;-77.514;2023-11-21T10:08:13;100675.67;;;0.80;45.76
80693;BME280;70055;39.436;-77.514;2023-11-21T10:10:44;100701.00;;;0.84;45.39
80693;BME280;70055;39.436;-77.514;2023-11-21T10:13:13;100703.54;;;1.53;44.56
80693;BME280;70055;39.436;-77.514;2023-11-21T10:15:42;100690.48;;;0.86;45.77
80693;BME280;70055;39.436;-77.514;2023-11-21T10:18:10;100687.22;;;0.05;47.71
80693;BME280;70055;39.436;-77.514;2023-11-21T10:20:38;100672.91;;;-0.30;49.10
80693;BME280;70055;39.436;-77.514;2023-11-21T10:23:06;100656.48;;;-0.14;48.94
80693;BME280;70055;39.436;-77.514;2023-11-21T10:25:34;100656.19;;;0.60;47.15
80693;BME280;70055;39.436;-77.514;2023-11-21T10:28:03;100649.68;;;-0.39;49.86
80693;BME280;70055;39.436;-77.514;2023-11-21T10:30:33;100641.45;;;0.79;47.55
80693;BME280;70055;39.436;-77.514;2023-11-21T10:33:02;100644.29;;;-0.05;49.35
80693;BME280;70055;39.436;-77.514;2023-11-21T10:35:55;100653.65;;;-0.22;50.04
80693;BME280;70055;39.436;-77.514;2023-11-21T10:38:23;100655.78;;;0.84;48.32
80693;BME280;70055;39.436;-77.514;2023-11-21T10:40:51;100660.03;;;0.61;47.53
80693;BME280;70055;39.436;-77.514;2023-11-21T10:43:19;100656.05;;;1.23;45.84
80693;BME280;70055;39.436;-77.514;2023-11-21T10:45:47;100661.62;;;0.25;47.95
80693;BME280;70055;39.436;-77.514;2023-11-21T10:48:15;100657.85;;;1.68;45.42
80693;BME280;70055;39.436;-77.514;2023-11-21T10:50:45;100658.16;;;1.24;45.84
80693;BME280;70055;39.436;-77.514;2023-11-21T10:53:12;100656.76;;;0.78;48.12
80693;BME280;70055;39.436;-77.514;2023-11-21T10:55:40;100656.45;;;1.05;46.43
80693;BME280;70055;39.436;-77.514;2023-11-21T10:58:11;100647.79;;;1.78;45.16
80693;BME280;70055;39.436;-77.514;2023-11-21T11:00:40;100651.93;;;0.54;47.48
80693;BME280;70055;39.436;-77.514;2023-11-21T11:03:09;100645.13;;;0.96;46.53
80693;BME280;70055;39.436;-77.514;2023-11-21T11:05:38;100637.88;;;1.00;46.69
80693;BME280;70055;39.436;-77.514;2023-11-21T11:08:09;100641.56;;;0.75;46.66
80693;BME280;70055;39.436;-77.514;2023-11-21T11:10:40;100641.93;;;0.71;48.13
80693;BME280;70055;39.436;-77.514;2023-11-21T11:13:08;100623.63;;;0.63;47.47
80693;BME280;70055;39.436;-77.514;2023-11-21T11:15:37;100620.25;;;0.11;49.06
80693;BME280;70055;39.436;-77.514;2023-11-21T11:18:05;100594.85;;;0.94;47.38
80693;BME280;70055;39.436;-77.514;2023-11-21T11:20:36;100586.91;;;0.27;47.65
80693;BME280;70055;39.436;-77.514;2023-11-21T11:23:21;100593.03;;;0.01;48.52
80693;BME280;70055;39.436;-77.514;2023-11-21T11:26:08;100588.34;;;0.75;47.39
80693;BME280;70055;39.436;-77.514;2023-11-21T11:28:47;100585.07;;;0.56;48.56
80693;BME280;70055;39.436;-77.514;2023-11-21T11:31:22;100582.23;;;0.48;46.91
80693;BME280;70055;39.436;-77.514;2023-11-21T11:33:57;100604.31;;;-0.76;50.15
80693;BME280;70055;39.436;-77.514;2023-11-21T11:36:31;100605.79;;;0.12;48.62
80693;BME280;70055;39.436;-77.514;2023-11-21T11:39:02;100606.72;;;1.21;45.89
80693;BME280;70055;39.436;-77.514;2023-11-21T11:41:31;100602.06;;;1.07;46.35
80693;BME280;70055;39.436;-77.514;2023-11-21T11:44:01;100604.26;;;0.34;47.80
80693;BME280;70055;39.436;-77.514;2023-11-21T11:46:45;100601.66;;;1.62;45.85
80693;BME280;70055;39.436;-77.514;2023-11-21T11:49:24;100611.96;;;-0.27;49.27
80693;BME280;70055;39.436;-77.514;2023-11-21T11:52:32;100605.94;;;0.81;46.57
80693;BME280;70055;39.436;-77.514;2023-11-21T11:55:02;100623.89;;;1.66;44.56
80693;BME280;70055;39.436;-77.514;2023-11-21T11:57:32;100617.09;;;0.84;46.72
80693;BME280;70055;39.436;-77.514;2023-11-21T12:00:11;100598.31;;;0.99;46.97
80693;BME280;70055;39.436;-77.514;2023-11-21T12:02:39;100587.66;;;0.94;47.20
80693;BME280;70055;39.436;-77.514;2023-11-21T12:05:10;100578.07;;;0.98;46.66
80693;BME280;70055;39.436;-77.514;2023-11-21T12:07:54;100572.84;;;0.27;49.01
80693;BME280;70055;39.436;-77.514;2023-11-21T12:10:24;100568.03;;;0.01;49.96
80693;BME280;70055;39.436;-77.514;2023-11-21T12:12:53;100560.59;;;1.11;48.67
80693;BME280;70055;39.436;-77.514;2023-11-21T12:15:22;100560.78;;;-0.02;49.79
80693;BME280;70055;39.436;-77.514;2023-11-21T12:17:51;100559.41;;;0.75;48.54
80693;BME280;70055;39.436;-77.514;2023-11-21T12:20:20;100542.30;;;1.00;48.51
80693;BME280;70055;39.436;-77.514;2023-11-21T12:22:50;100535.67;;;1.43;47.71
80693;BME280;70055;39.436;-77.514;2023-11-21T12:25:19;100520.35;;;0.88;48.39
80693;BME280;70055;39.436;-77.514;2023-11-21T12:27:49;100513.66;;;0.74;49.00
80693;BME280;70055;39.436;-77.514;2023-11-21T12:30:18;100508.72;;;-0.16;51.73
80693;BME280;70055;39.436;-77.514;2023-11-21T12:32:49;100504.42;;;0.43;50.57
80693;BME280;70055;39.436;-77.514;2023-11-21T12:35:19;100492.80;;;-0.04;52.87
80693;BME280;70055;39.436;-77.514;2023-11-21T12:37:48;100492.17;;;0.02;51.58
80693;BME280;70055;39.436;-77.514;2023-11-21T12:40:16;100486.02;;;0.63;51.49
80693;BME280;70055;39.436;-77.514;2023-11-21T12:42:45;100491.27;;;0.14;52.15
80693;BME280;70055;39.436;-77.514;2023-11-21T12:45:20;100493.61;;;0.62;51.64
80693;BME280;70055;39.436;-77.514;2023-11-21T12:47:49;100501.33;;;0.45;51.63